Daily Summary

Last 30 Days

Daily Data | Pacific/Honolulu
as of 8/3/21 5:12 AM HST
Date Daily Max Temp (°F) Time of Max Temp Daily Min Temp (°F) Time of Min Temp Daily Rain (In) Seasonal Rainfall (In) Wind Spd (mph) Daily Max Wind (mph) Time of Max Wind Max Wind Dir (°) Daily Solar Rad (Cal/cm2) Daily ETo (in) Dew Pt (°F) Max RH (%) Min RH (%) Max Press (inHg) Time of Max Press Min Press (inHg) Time of Min Press Bat Volt Min Day (V)
8/2/21 84.9 1241 74.0 0402 0.03 20.07 9.7 31.1 1650 NNE | 31 614 0.244 66.4 80 50 30.18 0824 30.07 1718 12.8
8/1/21 84.4 1305 77.1 0557 0.00 20.04 9.1 29.5 1437 NE | 38 565 0.231 66.2 74 51 30.17 0908 30.05 0401 12.7
7/31/21 85.0 1319 77.0 0330 0.00 20.04 8.5 29.9 0813 E | 82 645 0.245 67.7 75 54 30.14 2233 30.03 0257 12.7
7/30/21 84.5 1233 77.1 0426 0.00 20.04 7.3 27.1 1321 NNE | 27 575 0.216 68.9 75 57 30.11 2243 30.00 1611 12.8
7/29/21 84.0 1300 75.9 2101 0.00 20.04 8.2 28.0 1427 NNE | 28 638 0.227 70.2 88 59 30.11 0007 30.00 1535 12.8
7/28/21 82.8 1136 77.4 0234 0.00 20.04 7.6 26.1 1006 NE | 41 326 0.145 69.5 78 63 30.12 2254 30.01 0339 12.7
7/27/21 84.3 1215 76.8 0551 0.00 20.04 7.8 25.8 0852 NNE | 25 563 0.215 68.1 75 60 30.08 2226 30.01 0330 12.7
7/26/21 84.3 1323 77.7 0441 0.00 20.04 7.7 23.8 1500 NNE | 27 634 0.234 68.8 75 58 30.13 0003 30.01 1732 12.8
7/25/21 84.3 1434 77.2 0625 0.01 20.04 9.0 27.8 1329 NNE | 22 606 0.218 71.6 84 65 30.14 0803 30.04 1700 12.8
7/24/21 82.7 1505 75.0 0108 0.04 20.03 9.2 29.0 1529 NE | 52 559 0.195 71.8 86 70 30.15 0858 30.05 1658 12.8
7/23/21 81.7 1335 74.8 0748 0.03 19.99 9.3 28.4 2014 E | 86 493 0.184 69.3 86 65 30.14 0951 30.05 0505 12.8
7/22/21 85.0 1426 77.0 0617 0.00 19.96 8.5 28.3 1435 E | 87 425 0.183 67.9 76 54 30.13 2222 30.03 1638 12.8
7/21/21 81.6 1316 76.7 0522 0.04 19.96 8.2 24.3 1414 NNE | 31 448 0.172 69.1 85 65 30.15 1015 30.03 1614 12.8
7/20/21 83.1 1349 75.5 0035 0.10 19.92 8.4 29.4 1244 NNE | 28 552 0.201 68.7 84 61 30.14 2245 30.02 1719 12.8
7/19/21 83.5 1355 75.1 0635 0.04 19.82 8.8 30.0 1731 NNE | 30 526 0.196 69.2 85 61 30.09 2307 29.99 0445 12.8
7/18/21 82.6 1045 75.7 0243 0.00 19.78 8.6 29.7 1431 NE | 44 615 0.221 68.6 81 63 30.08 2234 29.97 1505 12.8
7/17/21 84.3 1258 75.5 0107 0.00 19.78 8.7 30.3 1344 NE | 35 589 0.220 68.5 83 58 30.11 1048 29.97 1632 12.8
7/16/21 84.4 1343 76.7 0840 0.00 19.78 8.9 32.4 1748 NNE | 25 570 0.224 68.1 81 52 30.13 0910 29.99 1711 12.8
7/15/21 83.7 1247 76.5 0203 0.00 19.78 7.7 26.4 1916 NNE | 16 491 0.197 68.4 80 59 30.11 2255 30.02 1648 12.8
7/14/21 83.3 1331 75.0 0725 0.05 19.78 7.1 25.1 1426 NE | 43 532 0.188 69.8 86 62 30.11 2302 30.02 1646 12.8
7/13/21 83.9 1253 75.0 0412 0.01 19.73 7.8 25.4 1409 NNE | 18 549 0.211 67.6 81 56 30.10 0956 30.01 0317 12.7
7/12/21 84.9 1444 72.6 0425 0.04 19.72 5.7 20.0 1409 NE | 46 528 0.196 68.4 90 56 30.07 2250 29.97 1706 12.8
7/11/21 82.7 1146 75.0 0057 0.08 19.68 8.4 27.3 1243 NNE | 21 458 0.191 66.9 84 56 30.10 0001 30.00 1750 12.8
7/10/21 85.1 1333 76.0 2359 0.08 19.60 6.5 21.0 1714 NE | 38 610 0.221 68.7 80 57 30.11 2245 30.01 1611 12.8
7/9/21 85.0 1220 76.2 0348 0.00 19.52 6.8 22.1 1620 NE | 40 664 0.245 66.8 77 54 30.08 2258 29.98 0322 12.8
7/8/21 84.8 1405 74.7 0600 0.00 19.52 6.6 21.1 2236 NE | 36 666 0.235 67.7 78 57 30.06 0001 29.96 1710 12.8
7/7/21 83.3 1501 73.1 0227 0.00 19.52 8.0 26.1 1335 NE | 43 680 0.242 67.4 86 56 30.11 0003 29.99 1645 12.8
7/6/21 83.4 1508 74.5 2014 0.03 19.52 7.9 27.0 1351 NNE | 31 633 0.227 68.2 85 57 30.12 2210 30.02 1633 12.7
7/5/21 84.0 1252 74.0 2154 0.08 19.49 8.1 27.7 1603 NE | 37 685 0.246 67.8 87 56 30.12 2135 30.01 0311 12.8
7/4/21 81.2 1500 72.9 0403 0.08 19.41 8.2 28.2 1219 NNE | 24 485 0.177 68.3 86 65 30.08 0001 29.98 1611 12.7
Max 85.1 - 77.7 - 0.10 - 9.7 32.4 - - 685 0.246 71.8 90 70 30.18 - 30.07 - 12.8
Avg - - - - - - 8.1 - - - - - 68.5 - - - - - - -
Min 81.2 - 72.6 - 0.00 - 5.7 20.0 - - 326 0.145 66.2 74 50 30.06 - 29.96 - 12.7